Time;durP1;ratioP1;P1;durP2;ratioP2;P2;SDS_P1;SDS_P2;PMS_P1;PMS_P2;Temp;Humidity;BMP_temperature;BMP_pressure;BME280_temperature;BME280_humidity;BME280_pressure;Samples;Min_cycle;Max_cycle;Signal;HPM_P1;HPM_P2
2021/10/26 00:01:59;;;;;;;22.17;10.30;;;;;;;3.31;54.02;101840.97;1708021;84;21513;-59
2021/10/26 00:04:28;;;;;;;26.00;10.30;;;;;;;3.30;54.05;101837.39;1708158;83;21442;-60
2021/10/26 00:06:57;;;;;;;22.05;9.78;;;;;;;3.30;53.98;101829.27;1708257;84;21452;-58
2021/10/26 00:09:26;;;;;;;29.00;11.48;;;;;;;3.28;53.90;101823.09;1708022;84;21528;-59
2021/10/26 00:11:56;;;;;;;24.50;9.73;;;;;;;3.24;53.99;101830.18;1708277;84;21908;-59
2021/10/26 00:14:26;;;;;;;25.05;9.73;;;;;;;3.19;54.15;101828.69;1708111;84;21505;-57
2021/10/26 00:16:56;;;;;;;22.62;10.75;;;;;;;3.16;54.21;101832.98;1707934;84;21045;-59
2021/10/26 00:19:25;;;;;;;24.15;9.73;;;;;;;3.14;54.30;101821.39;1708316;84;21010;-59
2021/10/26 00:21:54;;;;;;;28.75;10.70;;;;;;;3.13;54.32;101814.25;1707916;84;21434;-58
2021/10/26 00:24:23;;;;;;;27.75;10.32;;;;;;;3.13;54.35;101815.60;1708215;83;21537;-57
2021/10/26 00:26:54;;;;;;;23.02;10.20;;;;;;;3.16;54.26;101815.38;1707857;84;21057;-57
2021/10/26 00:29:24;;;;;;;22.73;9.33;;;;;;;3.10;54.34;101806.84;1708073;84;21017;-59
2021/10/26 00:31:54;;;;;;;27.87;9.93;;;;;;;3.05;54.38;101804.97;1676145;84;21491;-58
2021/10/26 00:34:23;;;;;;;25.45;10.43;;;;;;;3.06;54.48;101808.05;1655025;85;21585;-58
2021/10/26 00:36:53;;;;;;;23.67;10.25;;;;;;;3.06;54.51;101806.21;1675765;85;21284;-58
2021/10/26 00:39:22;;;;;;;26.80;10.55;;;;;;;3.05;54.58;101802.27;1675646;85;21123;-59
2021/10/26 00:41:51;;;;;;;28.80;10.28;;;;;;;3.06;54.64;101809.41;1675664;85;21111;-58
2021/10/26 00:44:19;;;;;;;25.20;10.03;;;;;;;3.08;54.57;101804.25;1673122;85;21853;-58
2021/10/26 00:46:49;;;;;;;22.60;9.73;;;;;;;3.06;54.48;101796.73;1654841;86;21075;-59
2021/10/26 00:49:18;;;;;;;24.02;9.98;;;;;;;3.04;54.55;101800.54;1676253;85;21075;-59
2021/10/26 00:51:49;;;;;;;28.83;10.40;;;;;;;3.01;54.61;101787.23;1675651;85;21079;-58
2021/10/26 00:54:18;;;;;;;27.67;10.72;;;;;;;3.02;54.62;101793.88;1675561;84;21075;-60
2021/10/26 00:56:49;;;;;;;20.77;9.08;;;;;;;3.02;54.59;101787.60;1675420;85;21044;-59
2021/10/26 00:59:18;;;;;;;25.02;9.93;;;;;;;3.03;54.57;101792.04;1675937;85;21090;-59
2021/10/26 01:01:48;;;;;;;23.87;10.38;;;;;;;2.98;54.67;101794.23;1675723;84;21194;-59
2021/10/26 01:04:17;;;;;;;24.37;10.70;;;;;;;2.94;54.79;101781.90;1675795;85;21468;-57
2021/10/26 01:06:46;;;;;;;22.35;9.40;;;;;;;2.93;54.86;101785.59;1679134;84;21510;-59
2021/10/26 01:09:16;;;;;;;23.47;9.73;;;;;;;2.92;54.96;101778.44;1675427;85;21090;-59
2021/10/26 01:11:45;;;;;;;27.15;11.03;;;;;;;2.97;54.95;101781.67;1655064;85;21598;-58
2021/10/26 01:14:17;;;;;;;24.57;10.25;;;;;;;2.98;54.87;101783.39;1675581;85;21338;-59
2021/10/26 01:16:46;;;;;;;23.85;10.03;;;;;;;2.96;55.00;101775.39;1654952;86;21068;-58
2021/10/26 01:19:16;;;;;;;25.57;10.32;;;;;;;2.97;54.91;101785.23;1675525;85;21068;-59
2021/10/26 01:21:45;;;;;;;22.75;9.75;;;;;;;2.95;54.90;101782.27;1675834;86;21067;-58
2021/10/26 01:24:16;;;;;;;25.00;10.13;;;;;;;2.95;54.98;101780.92;1675597;85;21083;-59
2021/10/26 01:26:46;;;;;;;25.08;10.65;;;;;;;2.97;54.97;101781.18;1675612;85;21056;-58
2021/10/26 01:29:15;;;;;;;23.25;9.60;;;;;;;2.99;54.95;101774.30;1676097;84;21553;-58
2021/10/26 01:31:45;;;;;;;30.08;11.05;;;;;;;3.00;55.08;101778.73;1693974;83;21510;-58
2021/10/26 01:34:18;;;;;;;34.10;10.95;;;;;;;3.03;54.98;101780.72;1697193;84;21958;-60
2021/10/26 01:36:49;;;;;;;26.70;10.60;;;;;;;3.02;54.95;101780.83;1697994;84;21446;-58
2021/10/26 01:39:19;;;;;;;25.70;10.58;;;;;;;2.96;55.01;101781.30;1677874;84;21158;-58
2021/10/26 01:41:49;;;;;;;23.25;10.23;;;;;;;2.95;55.13;101774.16;1698082;83;21474;-58
2021/10/26 01:44:19;;;;;;;27.00;11.15;;;;;;;2.97;55.12;101772.19;1698031;84;21564;-58
2021/10/26 01:46:48;;;;;;;24.55;10.15;;;;;;;2.95;55.18;101764.19;1698198;84;21478;-58
2021/10/26 01:49:22;;;;;;;24.98;10.48;;;;;;;2.98;55.21;101765.80;1697887;84;21089;-58
2021/10/26 01:51:51;;;;;;;24.72;10.72;;;;;;;2.98;55.20;101771.22;1697767;84;21027;-58
2021/10/26 01:54:20;;;;;;;23.70;9.95;;;;;;;2.97;55.21;101761.36;1598208;88;21574;-57
2021/10/26 01:56:51;;;;;;;26.42;10.68;;;;;;;3.01;55.17;101766.44;1619793;87;21108;-57
2021/10/26 01:59:33;;;;;;;25.02;11.28;;;;;;;3.01;55.13;101764.22;1619330;87;21214;-59
2021/10/26 02:02:03;;;;;;;24.18;10.35;;;;;;;3.03;55.13;101759.05;1619910;88;21498;-59
2021/10/26 02:04:34;;;;;;;24.40;10.95;;;;;;;3.01;55.17;101770.98;1619958;88;21070;-60
2021/10/26 02:07:04;;;;;;;27.35;10.45;;;;;;;2.95;55.28;101766.89;1619643;88;21588;-58
2021/10/26 02:09:34;;;;;;;27.73;12.03;;;;;;;2.84;55.44;101763.63;1619954;88;21166;-59
2021/10/26 02:12:04;;;;;;;28.98;11.55;;;;;;;2.82;55.63;101764.73;1644478;84;21474;-60
2021/10/26 02:14:35;;;;;;;26.33;10.40;;;;;;;2.79;55.65;101764.47;1678261;84;21129;-58
2021/10/26 02:17:04;;;;;;;28.30;10.90;;;;;;;2.79;55.75;101759.55;1696670;84;21192;-58
2021/10/26 02:19:33;;;;;;;25.23;10.43;;;;;;;2.82;55.79;101757.96;1697997;84;21069;-58
2021/10/26 02:22:01;;;;;;;25.32;10.40;;;;;;;2.82;55.83;101754.77;1697920;83;21518;-58
2021/10/26 02:24:30;;;;;;;25.97;10.72;;;;;;;2.81;55.79;101757.59;1697718;84;21458;-58
2021/10/26 02:26:59;;;;;;;29.23;11.68;;;;;;;2.67;55.91;101761.32;1697878;83;21576;-57
2021/10/26 02:29:30;;;;;;;25.75;10.23;;;;;;;2.59;56.09;101755.58;1697651;84;21022;-58
2021/10/26 02:32:01;;;;;;;26.65;11.25;;;;;;;2.56;56.27;101755.80;1696254;84;21137;-58
2021/10/26 02:34:30;;;;;;;29.50;11.53;;;;;;;2.52;56.38;101752.46;1698369;84;21453;-58
2021/10/26 02:36:59;;;;;;;31.80;11.43;;;;;;;2.47;56.54;101747.02;1698085;84;21117;-59
2021/10/26 02:39:27;;;;;;;28.23;11.53;;;;;;;2.44;56.66;101748.10;1698060;84;21541;-57
2021/10/26 02:41:56;;;;;;;34.15;12.03;;;;;;;2.40;56.78;101744.38;1698397;84;21006;-59
2021/10/26 02:44:27;;;;;;;25.12;11.05;;;;;;;2.35;56.96;101746.56;1678189;84;21520;-58
2021/10/26 02:46:57;;;;;;;21.70;8.90;;;;;;;2.36;57.10;101745.58;1698210;83;21148;-58
2021/10/26 02:49:26;;;;;;;28.45;11.03;;;;;;;2.41;57.10;101731.23;1698424;84;21421;-57
2021/10/26 02:51:56;;;;;;;30.37;12.28;;;;;;;2.48;56.96;101738.78;1698293;84;21521;-58
2021/10/26 02:54:25;;;;;;;30.15;11.15;;;;;;;2.55;56.80;101731.08;1698328;84;21430;-60
2021/10/26 02:56:56;;;;;;;30.62;12.13;;;;;;;2.56;56.72;101734.16;1697985;84;21007;-57
2021/10/26 02:59:25;;;;;;;28.92;10.80;;;;;;;2.54;56.74;101736.12;1698325;84;21488;-58
2021/10/26 03:01:53;;;;;;;29.12;10.32;;;;;;;2.50;56.81;101734.13;1698425;84;21437;-58
2021/10/26 03:04:23;;;;;;;24.55;9.95;;;;;;;2.53;56.79;101733.03;1698136;83;21062;-58
2021/10/26 03:06:52;;;;;;;25.72;9.23;;;;;;;2.55;56.78;101733.30;1698336;84;21496;-63
2021/10/26 03:09:21;;;;;;;24.85;9.75;;;;;;;2.58;56.74;101727.28;1698357;83;22022;-58
2021/10/26 03:11:50;;;;;;;19.57;8.08;;;;;;;2.62;56.74;101728.33;1698040;83;21498;-58
2021/10/26 03:14:20;;;;;;;23.57;8.75;;;;;;;2.70;56.59;101728.62;1698186;84;21442;-59
2021/10/26 03:16:49;;;;;;;23.80;9.20;;;;;;;2.77;56.45;101730.38;1697986;84;21003;-57
2021/10/26 03:19:17;;;;;;;21.27;8.80;;;;;;;2.82;56.28;101722.28;1698266;84;21582;-59
2021/10/26 03:21:47;;;;;;;18.70;8.13;;;;;;;2.84;56.19;101724.87;1698048;84;21057;-59
2021/10/26 03:24:16;;;;;;;23.00;8.85;;;;;;;2.88;56.11;101723.67;1698065;84;21462;-59
2021/10/26 03:26:45;;;;;;;26.05;9.68;;;;;;;2.91;55.87;101723.92;1698147;84;21125;-58
2021/10/26 03:29:14;;;;;;;23.10;9.20;;;;;;;2.93;55.83;101720.61;1698158;84;21168;-58
2021/10/26 03:31:44;;;;;;;23.30;8.65;;;;;;;2.97;55.67;101724.81;1686147;84;21118;-58
2021/10/26 03:34:31;;;;;;;22.73;9.45;;;;;;;2.97;55.62;101722.11;1675532;86;21075;-59
2021/10/26 03:37:01;;;;;;;22.70;8.90;;;;;;;2.97;55.57;101722.11;1675906;85;21672;-61
2021/10/26 03:39:30;;;;;;;22.42;9.28;;;;;;;2.91;55.66;101718.52;1675614;86;21063;-59
2021/10/26 03:41:59;;;;;;;19.27;8.48;;;;;;;2.90;55.62;101712.72;1675573;85;21158;-59
2021/10/26 03:44:28;;;;;;;32.73;9.63;;;;;;;2.81;55.80;101711.58;1675930;85;21492;-60
2021/10/26 03:46:57;;;;;;;24.60;9.70;;;;;;;2.79;55.81;101715.75;1675845;84;21059;-59
2021/10/26 03:49:26;;;;;;;25.10;9.60;;;;;;;2.79;55.89;101717.11;1675394;86;21222;-59
2021/10/26 03:51:55;;;;;;;25.27;9.95;;;;;;;2.81;55.93;101711.09;1675444;86;21201;-58
2021/10/26 03:54:24;;;;;;;25.90;9.88;;;;;;;2.80;55.90;101705.30;1675797;84;21067;-59
2021/10/26 03:56:53;;;;;;;28.40;11.15;;;;;;;2.81;55.93;101709.73;1676041;85;21087;-60
2021/10/26 03:59:30;;;;;;;26.95;11.68;;;;;;;2.79;55.92;101708.98;1675628;85;21539;-58
2021/10/26 04:01:54;;;;;;;26.40;9.83;;;;;;;2.74;55.96;101704.90;1676143;84;21103;-60
2021/10/26 04:04:23;;;;;;;28.02;11.73;;;;;;;2.71;56.08;101701.93;1676079;84;21091;-58
2021/10/26 04:06:52;;;;;;;35.23;11.83;;;;;;;2.69;56.12;101706.59;1675690;84;21104;-58
2021/10/26 04:09:30;;;;;;;37.78;13.28;;;;;;;2.66;56.19;101704.61;1675579;85;21138;-61
2021/10/26 04:12:16;;;;;;;32.75;12.95;;;;;;;2.62;56.34;101703.97;1675234;85;21331;-59
2021/10/26 04:14:23;;;;;;;40.25;15.23;;;;;;;2.58;56.46;101705.64;1672921;85;21636;-60
2021/10/26 04:16:56;;;;;;;28.77;12.85;;;;;;;2.51;56.59;101703.39;1675570;85;21657;-60
2021/10/26 04:19:26;;;;;;;28.12;12.07;;;;;;;2.46;56.70;101706.06;1675850;85;21269;-59
2021/10/26 04:21:56;;;;;;;26.97;11.03;;;;;;;2.44;56.85;101709.37;1654056;86;21535;-59
2021/10/26 04:24:26;;;;;;;36.73;13.22;;;;;;;2.43;56.94;101702.23;1675491;85;21529;-59
2021/10/26 04:26:55;;;;;;;23.35;10.15;;;;;;;2.41;57.03;101707.75;1675784;85;21559;-58
2021/10/26 04:29:24;;;;;;;26.25;11.40;;;;;;;2.41;57.09;101715.00;1675504;85;21495;-60
2021/10/26 04:31:55;;;;;;;31.30;13.40;;;;;;;2.40;57.16;101706.52;1685920;83;21490;-58
2021/10/26 04:34:25;;;;;;;40.80;15.80;;;;;;;2.39;57.21;101713.77;1698216;83;21149;-59
2021/10/26 04:36:55;;;;;;;42.20;14.47;;;;;;;2.38;57.23;101712.52;1678123;84;21030;-59
2021/10/26 04:39:25;;;;;;;53.28;20.15;;;;;;;2.36;57.33;101709.94;1697795;84;21461;-59
2021/10/26 04:41:54;;;;;;;42.93;18.98;;;;;;;2.38;57.41;101715.23;1697924;84;21014;-59
2021/10/26 04:44:23;;;;;;;46.48;20.00;;;;;;;2.37;57.40;101709.45;1698153;84;21053;-59
2021/10/26 04:46:52;;;;;;;31.87;13.80;;;;;;;2.34;57.47;101712.38;1698050;84;21540;-60
2021/10/26 04:49:23;;;;;;;61.18;23.75;;;;;;;2.33;57.55;101718.77;1698109;84;21053;-58
2021/10/26 04:51:52;;;;;;;58.15;23.52;;;;;;;2.35;57.56;101714.10;1698175;84;21590;-58
2021/10/26 04:54:22;;;;;;;65.42;25.23;;;;;;;2.30;57.63;101708.17;1697889;84;21061;-59
2021/10/26 04:56:52;;;;;;;57.55;24.98;;;;;;;2.30;57.69;101720.34;1696835;84;21062;-61
2021/10/26 04:59:36;;;;;;;46.23;20.00;;;;;;;2.30;57.72;101717.14;1698318;83;21481;-58
2021/10/26 05:02:06;;;;;;;37.67;16.10;;;;;;;2.27;57.78;101726.83;1678143;84;21458;-58
2021/10/26 05:04:37;;;;;;;36.53;15.53;;;;;;;2.27;57.87;101728.67;1697918;84;21153;-61
2021/10/26 05:07:06;;;;;;;30.57;13.93;;;;;;;2.29;57.86;101718.61;1698014;84;20991;-60
2021/10/26 05:09:35;;;;;;;29.20;12.40;;;;;;;2.31;57.81;101725.63;1698046;84;21543;-58
2021/10/26 05:12:06;;;;;;;28.80;12.05;;;;;;;2.31;57.85;101722.93;1697797;84;20975;-59
2021/10/26 05:14:36;;;;;;;27.10;11.63;;;;;;;2.33;57.82;101717.41;1677942;84;21272;-61
2021/10/26 05:17:25;;;;;;;23.38;10.35;;;;;;;2.33;57.84;101729.09;1697990;84;21474;-59
2021/10/26 05:20:19;;;;;;;19.90;9.85;;;;;;;2.37;57.83;101724.32;1695049;84;21592;-59
2021/10/26 05:23:10;;;;;;;27.73;11.03;;;;;;;2.37;57.76;101728.37;1696822;83;21494;-59
2021/10/26 05:25:57;;;;;;;27.50;10.53;;;;;;;2.37;57.74;101722.97;1698388;84;21034;-60
2021/10/26 05:28:29;;;;;;;24.87;10.20;;;;;;;2.40;57.72;101722.74;1695682;84;21518;-60
2021/10/26 05:30:58;;;;;;;23.73;10.55;;;;;;;2.43;57.67;101722.52;1698180;83;21500;-61
2021/10/26 05:33:27;;;;;;;25.20;10.63;;;;;;;2.46;57.60;101719.58;1685688;84;21572;-59
2021/10/26 05:35:56;;;;;;;30.30;9.95;;;;;;;2.47;57.59;101726.23;1685009;84;21102;-56
2021/10/26 05:38:27;;;;;;;31.55;9.83;;;;;;;2.48;57.57;101725.75;1714669;83;21559;-61
2021/10/26 05:40:56;;;;;;;24.85;10.48;;;;;;;2.48;57.52;101727.09;1733172;83;21073;-58
2021/10/26 05:43:26;;;;;;;21.17;9.13;;;;;;;2.51;57.44;101717.41;1732981;83;21027;-59
2021/10/26 05:45:57;;;;;;;23.57;9.83;;;;;;;2.51;57.44;101728.23;1732739;83;21547;-61
2021/10/26 05:48:26;;;;;;;22.60;8.75;;;;;;;2.52;57.43;101723.19;1732892;83;21126;-60
2021/10/26 05:50:56;;;;;;;27.13;10.85;;;;;;;2.55;57.38;101728.37;1732935;83;21166;-58
2021/10/26 05:53:25;;;;;;;20.27;9.53;;;;;;;2.56;57.39;101724.69;1732444;83;21023;-59
2021/10/26 05:55:54;;;;;;;26.80;10.30;;;;;;;2.55;57.36;101722.47;1732810;81;21023;-58
2021/10/26 05:58:24;;;;;;;22.45;9.93;;;;;;;2.57;57.39;101725.06;1732640;82;21067;-60
2021/10/26 06:00:53;;;;;;;22.42;10.08;;;;;;;2.61;57.35;101729.30;1732774;82;21075;-59
2021/10/26 06:03:23;;;;;;;25.10;9.70;;;;;;;2.65;57.33;101727.23;1732932;83;21011;-61
2021/10/26 06:05:52;;;;;;;25.05;9.33;;;;;;;2.71;57.20;101730.84;1733134;83;21123;-60
2021/10/26 06:08:21;;;;;;;24.27;10.28;;;;;;;2.74;57.10;101728.77;1732981;83;21015;-60
2021/10/26 06:10:56;;;;;;;26.50;11.08;;;;;;;2.76;57.05;101728.16;1733315;82;21120;-62
2021/10/26 06:13:26;;;;;;;25.30;9.63;;;;;;;2.79;57.03;101739.25;1732692;83;21051;-61
2021/10/26 06:15:56;;;;;;;26.02;9.70;;;;;;;2.84;57.00;101743.83;1733123;83;21451;-60
2021/10/26 06:18:25;;;;;;;26.80;10.63;;;;;;;2.87;56.92;101736.83;1733012;82;21076;-61
2021/10/26 06:20:55;;;;;;;24.05;9.60;;;;;;;2.91;56.92;101732.05;1733165;82;21023;-60
2021/10/26 06:23:25;;;;;;;21.17;9.75;;;;;;;2.94;56.81;101735.88;1713846;83;21091;-60
2021/10/26 06:25:55;;;;;;;23.05;9.93;;;;;;;3.01;56.77;101741.20;1733363;82;21059;-61
2021/10/26 06:28:27;;;;;;;23.40;9.18;;;;;;;3.04;56.68;101730.13;1731477;82;21139;-60
2021/10/26 06:30:56;;;;;;;25.23;9.38;;;;;;;3.09;56.64;101737.42;1733357;83;20999;-60
2021/10/26 06:33:26;;;;;;;28.38;9.40;;;;;;;3.13;56.50;101739.78;1726927;82;21146;-60
2021/10/26 06:35:57;;;;;;;20.75;9.43;;;;;;;3.19;56.40;101732.53;1725430;83;21192;-60
2021/10/26 06:38:27;;;;;;;24.87;10.60;;;;;;;3.23;56.38;101732.30;1726026;83;21032;-59
2021/10/26 06:40:57;;;;;;;22.73;9.25;;;;;;;3.30;56.31;101733.09;1647323;87;21039;-60
2021/10/26 06:43:44;;;;;;;20.68;9.15;;;;;;;3.36;56.24;101726.34;1647902;87;21550;-61
2021/10/26 06:46:19;;;;;;;21.80;9.93;;;;;;;3.41;56.14;101725.49;1649228;86;21569;-59
2021/10/26 06:49:07;;;;;;;20.12;8.65;;;;;;;3.50;56.05;101724.78;1647865;87;21541;-61
2021/10/26 06:51:57;;;;;;;22.75;8.40;;;;;;;3.61;55.86;101722.58;1647652;87;21486;-59
2021/10/26 06:54:44;;;;;;;24.12;9.45;;;;;;;3.68;55.70;101720.63;1647761;87;21503;-60
2021/10/26 06:57:33;;;;;;;15.70;8.10;;;;;;;3.74;55.65;101713.85;1647789;87;21515;-60
2021/10/26 07:00:23;;;;;;;22.02;8.65;;;;;;;3.79;55.64;101718.42;1726712;83;21470;-62
2021/10/26 07:03:04;;;;;;;15.93;8.30;;;;;;;3.86;55.60;101714.23;1722921;83;21168;-59
2021/10/26 07:05:52;;;;;;;16.75;6.92;;;;;;;3.94;55.54;101711.80;1726146;83;21566;-59
2021/10/26 07:08:35;;;;;;;15.10;6.55;;;;;;;4.03;55.55;101698.86;1725992;83;21081;-59
2021/10/26 07:11:23;;;;;;;17.10;7.37;;;;;;;4.14;55.36;101704.28;1725792;83;21550;-62
2021/10/26 07:13:52;;;;;;;14.33;6.30;;;;;;;4.25;55.20;101705.26;1726151;83;21146;-61
2021/10/26 07:16:22;;;;;;;11.03;6.15;;;;;;;4.33;55.13;101708.20;1725855;83;21447;-61
2021/10/26 07:18:52;;;;;;;15.80;7.03;;;;;;;4.41;54.92;101691.66;1725815;83;21182;-60
2021/10/26 07:21:22;;;;;;;13.85;7.30;;;;;;;4.52;54.82;101698.92;1725773;83;21051;-60
2021/10/26 07:24:05;;;;;;;13.98;6.92;;;;;;;4.60;54.70;101693.75;1723136;83;21017;-60
2021/10/26 07:26:36;;;;;;;12.95;7.08;;;;;;;4.68;54.53;101699.41;1725210;83;21193;-59
2021/10/26 07:29:06;;;;;;;13.83;6.90;;;;;;;4.79;54.52;101699.86;1725595;83;21008;-60
2021/10/26 07:31:36;;;;;;;14.15;6.15;;;;;;;4.92;54.44;101699.69;1689901;83;21123;-59
2021/10/26 07:34:06;;;;;;;15.83;7.53;;;;;;;5.17;54.12;101684.89;1725798;82;21023;-61
2021/10/26 07:36:43;;;;;;;13.25;6.33;;;;;;;5.55;53.79;101680.24;1725469;83;21115;-59
2021/10/26 07:39:29;;;;;;;17.15;6.42;;;;;;;6.06;52.69;101680.27;1725729;83;21491;-61
2021/10/26 07:41:41;;;;;;;11.05;6.45;;;;;;;6.74;51.27;101673.67;1723369;83;21015;-60
2021/10/26 07:44:30;;;;;;;16.60;5.90;;;;;;;7.29;49.79;101670.75;1726102;83;21052;-61
2021/10/26 07:47:04;;;;;;;13.58;6.35;;;;;;;7.93;48.67;101660.50;1725046;83;21166;-60
2021/10/26 07:49:34;;;;;;;12.00;6.15;;;;;;;8.41;47.44;101667.11;1725511;83;21087;-59
2021/10/26 07:52:06;;;;;;;13.65;6.03;;;;;;;8.76;46.52;101661.38;1725555;83;21024;-59
2021/10/26 07:54:36;;;;;;;10.90;4.92;;;;;;;9.15;45.66;101655.98;1725587;83;21173;-61
2021/10/26 07:57:06;;;;;;;13.18;6.22;;;;;;;9.47;44.52;101654.52;1706933;83;21110;-61
2021/10/26 07:59:35;;;;;;;11.30;5.30;;;;;;;9.65;44.07;101659.42;1725318;83;21174;-60
2021/10/26 08:02:04;;;;;;;9.08;5.47;;;;;;;9.81;43.72;101646.39;1725490;83;21142;-61
2021/10/26 08:04:33;;;;;;;11.18;5.10;;;;;;;9.99;43.29;101650.42;1725552;83;21551;-60
2021/10/26 08:07:16;;;;;;;11.33;5.00;;;;;;;10.11;43.02;101646.37;1725275;83;21063;-59
2021/10/26 08:09:47;;;;;;;10.28;5.50;;;;;;;10.17;42.77;101651.19;1725539;83;21063;-60
2021/10/26 08:12:18;;;;;;;11.93;5.20;;;;;;;10.18;42.71;101645.55;1725635;83;21035;-62
2021/10/26 08:14:48;;;;;;;16.10;4.75;;;;;;;10.20;42.60;101652.26;1726116;83;21023;-60
2021/10/26 08:17:17;;;;;;;11.95;4.87;;;;;;;10.19;42.66;101639.55;1724642;83;21091;-60
2021/10/26 08:19:47;;;;;;;10.45;4.20;;;;;;;10.17;42.74;101645.20;1725599;83;21038;-63
2021/10/26 08:28:19;;;;;;;8.10;3.55;;;;;;;9.77;42.15;101630.80;1725463;83;21053;-61
2021/10/26 08:30:55;;;;;;;15.18;4.72;;;;;;;9.55;42.37;101632.69;1724765;83;21062;-61
2021/10/26 08:33:40;;;;;;;8.18;3.80;;;;;;;9.37;42.57;101628.62;1737413;81;21106;-61
2021/10/26 08:36:05;;;;;;;6.30;4.05;;;;;;;9.21;42.94;101632.61;1736734;81;21016;-62
2021/10/26 08:38:36;;;;;;;8.70;4.53;;;;;;;9.09;43.39;101639.30;1760455;81;21012;-63
2021/10/26 08:41:09;;;;;;;13.85;4.10;;;;;;;9.05;43.48;101638.77;1742694;81;21066;-63
2021/10/26 08:43:38;;;;;;;8.30;4.17;;;;;;;9.04;43.75;101623.89;1730051;82;21066;-61
2021/10/26 08:46:09;;;;;;;7.97;4.25;;;;;;;9.06;43.97;101631.42;1703535;84;21505;-63
2021/10/26 08:48:41;;;;;;;14.43;4.50;;;;;;;9.07;43.68;101632.63;1703682;82;21076;-65
2021/10/26 08:51:29;;;;;;;18.55;4.58;;;;;;;9.06;43.59;101630.91;1703345;82;21493;-62
2021/10/26 08:54:01;;;;;;;10.08;4.62;;;;;;;9.06;43.40;101637.75;1765349;81;21036;-62
2021/10/26 08:56:37;;;;;;;8.88;4.50;;;;;;;9.06;43.67;101639.12;1730237;81;21056;-62
2021/10/26 08:59:23;;;;;;;9.93;4.35;;;;;;;9.07;43.61;101624.42;1700099;84;21217;-61
2021/10/26 09:02:00;;;;;;;132.78;9.43;;;;;;;9.08;43.78;101619.31;1742254;81;21079;-62
2021/10/26 09:04:48;;;;;;;164.43;11.25;;;;;;;9.13;43.69;101625.70;1760263;81;21476;-63
2021/10/26 09:07:19;;;;;;;38.63;5.87;;;;;;;9.16;43.26;101620.77;1717617;81;21604;-63
2021/10/26 09:09:50;;;;;;;34.70;5.92;;;;;;;9.13;43.19;101625.70;1663974;85;21138;-63
2021/10/26 09:18:32;;;;;;;12.03;5.17;;;;;;;8.95;43.49;101628.93;1684307;83;21099;-59
2021/10/26 09:24:15;;;;;;;11.83;4.47;;;;;;;8.93;44.04;101615.42;1685035;85;21047;-62
2021/10/26 09:26:52;;;;;;;9.78;5.40;;;;;;;8.96;43.91;101612.38;1692330;84;21061;-64
2021/10/26 09:29:45;;;;;;;9.78;4.92;;;;;;;8.99;44.13;101603.86;1663241;85;21585;-59
2021/10/26 09:32:23;;;;;;;9.30;5.35;;;;;;;9.05;43.87;101614.67;1713282;81;21093;-60
2021/10/26 09:34:59;;;;;;;13.13;4.60;;;;;;;9.08;43.95;101601.53;1760567;81;21071;-60
2021/10/26 09:37:35;;;;;;;14.28;5.12;;;;;;;9.14;43.98;101598.20;1760388;81;21079;-59
2021/10/26 09:40:06;;;;;;;;;;;;;;;9.15;44.08;101594.45;1715296;82;21564;-60
2021/10/26 09:42:44;;;;;;;8.30;4.55;;;;;;;9.16;45.43;101590.70;1756386;81;20148;-61
2021/10/26 09:45:28;;;;;;;7.28;4.00;;;;;;;9.16;45.79;101587.11;1702310;83;21040;-60
2021/10/26 09:48:12;;;;;;;9.30;4.12;;;;;;;9.23;45.57;101587.32;1701535;83;21027;-61
2021/10/26 09:50:42;;;;;;;10.30;4.62;;;;;;;9.25;45.83;101588.02;1760123;81;21016;-61
2021/10/26 09:53:14;;;;;;;13.88;6.47;;;;;;;9.23;46.04;101567.67;1733070;82;21096;-61
2021/10/26 09:55:48;;;;;;;12.53;6.40;;;;;;;9.23;45.60;101575.87;1757708;81;21034;-61
2021/10/26 09:58:23;;;;;;;7.42;4.20;;;;;;;9.25;45.40;101560.67;1745512;81;21102;-61
2021/10/26 10:01:09;;;;;;;8.00;4.20;;;;;;;9.26;44.75;101563.75;1760216;81;21581;-60
2021/10/26 10:03:40;;;;;;;10.98;4.70;;;;;;;9.28;44.45;101564.45;1760374;81;21047;-61
2021/10/26 10:06:10;;;;;;;9.83;4.55;;;;;;;9.25;44.27;101566.14;1760852;81;21617;-61
2021/10/26 10:08:40;;;;;;;9.25;4.42;;;;;;;9.23;44.05;101549.03;1743013;81;21637;-61
2021/10/26 10:11:20;;;;;;;8.25;4.30;;;;;;;9.24;44.17;101556.22;1742197;82;21015;-62
2021/10/26 10:13:55;;;;;;;12.05;5.58;;;;;;;9.25;44.43;101546.48;1723996;82;21048;-62
2021/10/26 10:16:28;;;;;;;10.25;5.17;;;;;;;9.26;44.61;101538.63;1711976;84;21071;-62
2021/10/26 10:18:57;;;;;;;9.00;5.00;;;;;;;9.29;44.11;101539.67;1719703;81;21138;-61
2021/10/26 10:21:29;;;;;;;13.15;5.17;;;;;;;9.34;43.84;101527.74;1752951;81;21040;-61
2021/10/26 10:23:59;;;;;;;11.33;4.75;;;;;;;9.38;43.33;101526.39;1744001;81;21562;-59
2021/10/26 10:26:29;;;;;;;13.45;5.20;;;;;;;9.44;43.18;101526.25;1759746;81;21096;-59
2021/10/26 10:29:00;;;;;;;9.30;4.85;;;;;;;9.47;42.86;101519.95;1760607;81;21054;-60
2021/10/26 10:31:30;;;;;;;8.15;4.58;;;;;;;9.48;43.22;101516.70;1760378;81;21045;-61
2021/10/26 10:34:00;;;;;;;21.73;6.08;;;;;;;9.49;43.09;101505.59;1756200;80;21161;-61
2021/10/26 10:36:28;;;;;;;13.55;5.85;;;;;;;9.57;43.93;101510.76;1743876;82;21043;-64
2021/10/26 10:39:05;;;;;;;11.63;5.92;;;;;;;9.62;44.26;101502.40;1743412;82;21305;-63
2021/10/26 10:41:36;;;;;;;12.90;4.97;;;;;;;9.67;43.90;101498.66;1771350;81;21596;-65
2021/10/26 10:44:21;;;;;;;11.65;5.50;;;;;;;9.70;43.75;101499.70;1776123;81;21078;-64
2021/10/26 10:46:56;;;;;;;9.58;5.22;;;;;;;9.72;43.60;101485.84;1751406;81;21032;-62
2021/10/26 10:49:46;;;;;;;12.95;6.10;;;;;;;9.72;43.66;101489.44;1726433;81;21909;-65
2021/10/26 10:58:39;;;;;;;10.70;6.03;;;;;;;9.73;43.71;101469.77;1727879;81;21039;-65
2021/10/26 11:01:33;;;;;;;11.25;5.25;;;;;;;9.70;42.91;101483.28;1703124;81;21067;-66
2021/10/26 11:07:12;;;;;;;10.10;5.15;;;;;;;9.74;42.88;101473.70;1757801;81;21500;-64
2021/10/26 11:09:43;;;;;;;9.58;5.33;;;;;;;9.73;42.79;101472.51;1758232;81;21448;-63
2021/10/26 11:12:21;;;;;;;11.93;5.40;;;;;;;9.72;42.12;101464.81;1758299;81;21495;-60
2021/10/26 11:14:57;;;;;;;7.00;4.90;;;;;;;9.69;42.48;101463.77;1757495;81;21072;-61
2021/10/26 11:17:41;;;;;;;8.95;5.08;;;;;;;9.70;42.20;101460.02;1757952;81;21138;-62
2021/10/26 11:20:37;;;;;;;8.03;4.75;;;;;;;9.74;41.82;101453.69;1757642;81;21696;-62
2021/10/26 11:23:15;;;;;;;21.40;9.20;;;;;;;9.74;41.79;101453.69;1758173;81;21487;-64
2021/10/26 11:25:45;;;;;;;15.75;5.85;;;;;;;9.77;41.72;101450.14;1757872;81;21063;-63
2021/10/26 11:28:24;;;;;;;8.33;4.67;;;;;;;9.77;41.89;101447.92;1758349;81;21099;-63
2021/10/26 11:30:59;;;;;;;14.85;6.62;;;;;;;9.79;41.74;101437.15;1758207;81;21459;-59
2021/10/26 11:33:30;;;;;;;9.18;4.62;;;;;;;9.80;41.61;101441.59;1757227;81;21090;-60
2021/10/26 11:36:30;;;;;;;12.90;4.80;;;;;;;9.83;40.88;101433.05;1757767;81;21507;-58
2021/10/26 11:38:56;;;;;;;10.03;4.60;;;;;;;9.88;40.85;101429.81;1757336;81;21075;-59
2021/10/26 11:41:35;;;;;;;11.30;5.30;;;;;;;9.92;40.32;101434.44;1743166;81;21079;-60
2021/10/26 11:47:15;;;;;;;10.40;4.60;;;;;;;9.93;40.11;101425.20;1736922;81;21039;-64
2021/10/26 11:49:44;;;;;;;9.85;4.70;;;;;;;9.94;39.92;101417.33;1730079;81;21234;-64
2021/10/26 11:52:13;;;;;;;8.93;4.62;;;;;;;9.97;39.11;101412.88;1730433;81;21513;-64
2021/10/26 11:54:51;;;;;;;13.22;4.25;;;;;;;9.99;39.28;101425.38;1730394;81;21157;-63
2021/10/26 11:57:20;;;;;;;9.25;4.50;;;;;;;10.02;39.47;101424.19;1730597;81;21115;-63
2021/10/26 11:59:55;;;;;;;7.20;4.08;;;;;;;10.05;39.66;101416.48;1722855;81;21040;-64
2021/10/26 12:02:24;;;;;;;7.83;4.28;;;;;;;10.07;39.66;101419.05;1700581;81;21511;-63
2021/10/26 12:04:59;;;;;;;12.23;4.90;;;;;;;10.08;39.07;101409.30;1754961;81;21111;-62
2021/10/26 12:07:59;;;;;;;7.20;4.05;;;;;;;10.11;39.14;101402.63;1757859;81;21444;-64
2021/10/26 12:10:46;;;;;;;10.60;4.28;;;;;;;10.12;38.93;101397.50;1757135;81;21075;-64
2021/10/26 12:13:20;;;;;;;6.95;4.30;;;;;;;10.14;38.98;101397.67;1755351;81;21190;-63
2021/10/26 12:15:50;;;;;;;8.80;5.10;;;;;;;10.18;39.06;101389.97;1757643;81;21028;-64
2021/10/26 12:18:39;;;;;;;10.50;4.00;;;;;;;10.20;38.94;101387.95;1757910;81;21024;-64